Time;durP1;ratioP1;P1;durP2;ratioP2;P2;SDS_P1;SDS_P2;PMS_P1;PMS_P2;Temp;Humidity;BMP_temperature;BMP_pressure;BME280_temperature;BME280_humidity;BME280_pressure;Samples;Min_cycle;Max_cycle;Signal;HPM_P1;HPM_P2
2021/04/23 00:01:43;;;;;;;5.80;3.30;;;10.70;99.90;;;10.15;83.09;101127.50;5067554;28;20042;-52
2021/04/23 00:04:09;;;;;;;6.45;3.75;;;10.70;99.90;;;10.17;83.11;101125.63;5066787;28;20100;-50
2021/04/23 00:06:39;;;;;;;13.63;4.70;;;10.80;99.90;;;10.26;82.97;101128.31;5066968;28;20106;-51
2021/04/23 00:09:16;;;;;;;8.43;4.50;;;10.80;99.90;;;10.29;83.02;101125.47;5067604;28;20110;-48
2021/04/23 00:11:54;;;;;;;7.53;5.13;;;10.90;99.90;;;10.29;83.14;101122.88;5066631;28;20036;-46
2021/04/23 00:14:49;;;;;;;7.43;4.93;;;10.90;99.90;;;10.27;82.77;101118.72;5054687;28;20040;-47
2021/04/23 00:17:17;;;;;;;8.48;5.43;;;10.90;99.90;;;10.17;83.10;101120.41;5052317;28;20091;-48
2021/04/23 00:19:47;;;;;;;11.30;4.97;;;10.80;99.90;;;10.09;83.39;101125.41;5049676;28;20111;-48
2021/04/23 00:22:14;;;;;;;7.35;5.05;;;10.70;99.90;;;10.09;83.41;101126.22;5067306;28;20117;-47
2021/04/23 00:24:40;;;;;;;8.07;5.75;;;10.70;99.90;;;10.08;83.47;101128.97;5066075;28;20068;-46
2021/04/23 00:27:07;;;;;;;10.45;5.32;;;10.60;99.90;;;10.04;83.67;101128.38;5067462;28;20032;-51
2021/04/23 00:29:35;;;;;;;7.35;4.32;;;10.70;99.90;;;10.07;83.65;101128.13;5066471;28;20531;-48
2021/04/23 00:32:04;;;;;;;8.57;4.65;;;10.70;99.90;;;10.06;83.41;101121.28;5066264;28;20040;-49
2021/04/23 00:34:30;;;;;;;8.57;5.25;;;10.60;99.90;;;10.04;83.39;101123.19;5064145;28;20381;-47
2021/04/23 00:36:57;;;;;;;13.13;5.20;;;10.60;99.90;;;10.01;83.57;101122.59;5049321;28;20040;-47
2021/04/23 00:39:23;;;;;;;11.02;5.05;;;10.60;99.90;;;10.03;83.77;101124.13;5047230;28;20049;-45
2021/04/23 00:41:49;;;;;;;9.68;5.45;;;10.60;99.90;;;10.07;83.81;101128.13;5051523;28;20032;-48
2021/04/23 00:44:16;;;;;;;8.48;4.93;;;10.60;99.90;;;10.06;83.97;101129.09;5065931;28;20461;-50
2021/04/23 00:46:42;;;;;;;8.20;4.28;;;10.70;99.90;;;10.00;84.59;101126.97;5067064;28;20036;-50
2021/04/23 00:49:08;;;;;;;8.73;5.07;;;10.60;99.90;;;9.92;84.52;101130.19;5066339;28;20464;-46
2021/04/23 00:51:48;;;;;;;8.38;6.15;;;10.50;99.90;;;9.91;84.95;101118.16;5067266;28;20110;-50
2021/04/23 00:54:15;;;;;;;10.00;6.28;;;10.50;99.90;;;9.91;84.36;101122.53;5050175;28;20123;-50
2021/04/23 00:56:41;;;;;;;10.85;6.22;;;10.40;99.90;;;9.90;84.08;101120.88;5067191;28;20119;-48
2021/04/23 00:59:12;;;;;;;11.18;6.32;;;10.40;99.90;;;9.86;84.25;101122.09;5065897;28;20191;-46
2021/04/23 01:01:52;;;;;;;7.05;4.22;;;10.40;99.90;;;9.79;84.30;101123.53;5048368;28;20458;-48
2021/04/23 01:04:20;;;;;;;8.00;4.50;;;10.40;99.90;;;9.62;84.96;101123.09;5057610;28;20397;-49
2021/04/23 01:06:47;;;;;;;12.05;4.65;;;10.30;99.90;;;9.54;85.38;101125.47;5066771;28;20040;-50
2021/04/23 01:09:21;;;;;;;7.85;3.75;;;10.20;99.90;;;9.47;85.49;101126.91;5056325;28;20040;-50
2021/04/23 01:11:49;;;;;;;5.07;3.65;;;10.10;99.90;;;9.40;85.77;101130.13;5066148;28;20028;-44
2021/04/23 01:14:16;;;;;;;9.82;4.65;;;10.00;99.90;;;9.36;86.13;101126.94;5056989;28;20132;-45
2021/04/23 01:16:42;;;;;;;11.30;4.72;;;10.00;99.90;;;9.30;86.08;101130.84;5046702;28;20076;-48
2021/04/23 01:19:14;;;;;;;6.47;3.85;;;9.90;99.90;;;9.23;86.34;101131.44;5054673;28;20380;-51
2021/04/23 01:21:41;;;;;;;9.65;4.70;;;9.80;99.90;;;9.20;86.30;101135.09;5065964;28;20393;-50
2021/04/23 01:24:10;;;;;;;12.38;4.45;;;9.80;99.90;;;9.17;86.38;101139.72;5066080;28;20333;-50
2021/04/23 01:26:47;;;;;;;10.38;4.68;;;9.80;99.90;;;9.22;86.69;101140.19;5066616;28;20028;-46
2021/04/23 01:29:16;;;;;;;6.82;2.85;;;9.80;99.90;;;9.09;86.33;101135.09;5066251;28;20032;-47
2021/04/23 01:31:46;;;;;;;5.38;2.65;;;9.70;99.90;;;9.01;86.23;101134.88;5069603;28;20025;-46
2021/04/23 01:34:36;;;;;;;4.82;2.58;;;9.60;99.90;;;8.94;86.72;101136.31;5069321;28;20439;-47
2021/04/23 01:37:05;;;;;;;5.25;2.85;;;9.60;99.90;;;8.86;86.47;101138.66;5070506;28;20482;-46
2021/04/23 01:39:35;;;;;;;5.63;2.95;;;9.50;99.90;;;8.84;86.54;101146.56;5054474;28;20400;-49
2021/04/23 01:42:03;;;;;;;6.15;3.10;;;9.40;99.90;;;8.82;86.93;101140.66;5069385;28;20040;-51
2021/04/23 01:44:31;;;;;;;5.95;2.80;;;9.40;99.90;;;8.91;85.62;101147.78;5069127;28;20036;-52
2021/04/23 01:46:58;;;;;;;4.43;2.15;;;9.50;99.90;;;8.90;85.49;101140.09;5069862;28;20510;-48
2021/04/23 01:49:24;;;;;;;7.22;2.22;;;9.50;99.90;;;8.89;85.20;101146.22;5062628;28;20124;-49
2021/04/23 01:52:09;;;;;;;2.97;1.83;;;9.50;99.90;;;8.88;84.91;101140.22;5056611;28;20111;-47
2021/04/23 01:54:35;;;;;;;3.90;1.75;;;9.40;99.90;;;8.85;84.40;101144.81;5070028;28;20032;-46
2021/04/23 01:57:04;;;;;;;4.50;1.73;;;9.40;99.90;;;8.83;84.13;101150.13;5068918;28;20079;-48
2021/04/23 01:59:32;;;;;;;4.35;1.58;;;9.40;99.90;;;8.87;83.80;101150.72;5068558;28;20383;-49
2021/04/23 02:02:00;;;;;;;3.42;1.98;;;9.40;99.90;;;8.90;83.53;101147.88;5068815;28;20032;-49
2021/04/23 02:04:28;;;;;;;3.42;1.67;;;9.40;99.90;;;8.87;83.41;101142.91;5069585;28;20511;-46
2021/04/23 02:06:57;;;;;;;4.18;1.52;;;9.40;99.90;;;8.80;83.80;101142.56;5069164;28;20450;-43
2021/04/23 02:09:23;;;;;;;4.15;1.52;;;9.40;99.90;;;8.85;83.27;101148.22;5069643;28;20052;-45
2021/04/23 02:11:52;;;;;;;3.40;2.22;;;9.40;99.90;;;8.87;83.63;101142.91;5068855;28;20048;-51
2021/04/23 02:14:18;;;;;;;3.88;2.20;;;9.40;99.90;;;8.90;82.98;101140.91;5049612;28;20649;-51
2021/04/23 02:16:46;;;;;;;1.83;1.45;;;9.40;99.90;;;8.98;82.59;101143.72;5049609;28;20059;-46
2021/04/23 02:19:13;;;;;;;4.88;2.08;;;9.50;99.90;;;9.04;81.86;101146.81;5069128;28;20120;-45
2021/04/23 02:21:41;;;;;;;4.20;1.67;;;9.50;99.90;;;9.12;81.63;101141.84;5069522;28;20090;-49
2021/04/23 02:24:08;;;;;;;4.32;2.30;;;9.60;99.90;;;9.12;81.55;101144.44;5067475;28;20040;-48
2021/04/23 02:26:36;;;;;;;3.42;1.83;;;9.70;99.90;;;9.16;80.95;101145.88;5069169;28;20132;-44
2021/04/23 02:29:15;;;;;;;5.38;2.03;;;9.60;99.90;;;9.13;80.60;101144.31;5068554;28;20470;-48
2021/04/23 02:31:50;;;;;;;3.45;1.20;;;9.70;99.90;;;9.11;80.46;101148.00;5068768;28;20044;-47
2021/04/23 02:34:18;;;;;;;2.15;1.60;;;9.60;99.90;;;9.09;80.56;101150.72;5068257;28;20039;-43
2021/04/23 02:36:44;;;;;;;3.28;1.48;;;9.70;99.90;;;9.05;80.39;101151.06;5068173;28;20044;-44
2021/04/23 02:39:14;;;;;;;5.47;1.90;;;9.60;99.90;;;9.09;80.37;101145.50;5069467;28;20044;-45
2021/04/23 02:41:44;;;;;;;4.07;1.40;;;9.60;99.90;;;9.12;79.96;101144.44;5056593;28;20549;-45
2021/04/23 02:44:11;;;;;;;3.03;1.95;;;9.70;99.90;;;9.08;79.96;101143.03;5060023;28;20052;-47
2021/04/23 02:46:39;;;;;;;3.35;1.75;;;9.60;99.90;;;9.10;79.80;101146.34;5051042;28;20115;-45
2021/04/23 02:49:07;;;;;;;5.10;1.48;;;9.60;99.90;;;9.11;79.28;101148.00;5058822;28;20094;-48
2021/04/23 02:51:38;;;;;;;4.40;1.45;;;9.70;99.90;;;9.09;79.22;101144.69;5048902;28;20035;-47
2021/04/23 02:54:04;;;;;;;3.72;1.45;;;9.60;99.90;;;9.05;79.34;101151.88;5254755;22;20057;-45
2021/04/23 02:56:31;;;;;;;4.82;2.00;;;9.60;99.90;;;9.02;79.57;101148.69;5040573;28;20140;-47
2021/04/23 02:58:58;;;;;;;5.18;2.72;;;9.60;99.90;;;9.07;79.63;101146.56;5028909;28;20128;-45
2021/04/23 03:01:32;;;;;;;10.90;3.40;;;9.60;99.90;;;8.82;81.17;101147.63;5034735;28;20041;-44
2021/04/23 03:03:59;;;;;;;7.43;4.57;;;9.50;99.90;;;8.70;82.46;101151.16;5045726;28;20044;-48
2021/04/23 03:06:25;;;;;;;7.47;4.28;;;9.40;99.90;;;8.67;82.72;101149.63;5036373;28;20044;-49
2021/04/23 03:08:51;;;;;;;5.57;4.07;;;9.30;99.90;;;8.64;83.18;101149.84;5048782;28;20112;-45
2021/04/23 03:11:22;;;;;;;8.32;3.80;;;9.30;99.90;;;8.70;83.53;101153.75;5046240;28;20326;-44
2021/04/23 03:13:53;;;;;;;8.32;3.78;;;9.30;99.90;;;8.91;82.09;101154.75;5028676;28;20129;-46
2021/04/23 03:16:20;;;;;;;4.90;2.47;;;9.40;99.90;;;8.87;82.56;101155.91;5028780;28;20116;-45
2021/04/23 03:18:48;;;;;;;5.72;3.08;;;9.40;99.90;;;9.04;81.50;101157.19;5028259;28;20507;-43
2021/04/23 03:21:18;;;;;;;10.32;3.30;;;9.50;99.90;;;9.14;80.72;101152.94;5028498;28;20117;-43
2021/04/23 03:23:44;;;;;;;4.68;2.15;;;9.60;99.90;;;9.23;80.04;101160.06;5010661;28;20069;-44
2021/04/23 03:26:13;;;;;;;5.93;1.67;;;9.70;99.90;;;9.26;79.14;101163.25;5029628;28;20095;-46
2021/04/23 03:28:41;;;;;;;3.92;1.60;;;9.80;99.90;;;9.29;78.82;101167.38;5028023;28;20499;-46
2021/04/23 03:31:10;;;;;;;6.05;1.75;;;9.80;99.90;;;9.28;78.90;101171.75;5033437;28;20044;-46
2021/04/23 03:33:37;;;;;;;5.90;2.10;;;9.80;99.90;;;9.22;78.93;101166.19;5028307;28;20033;-47
2021/04/23 03:36:05;;;;;;;3.75;1.65;;;9.80;99.90;;;9.20;78.93;101173.28;5034925;28;20068;-47
2021/04/23 03:38:35;;;;;;;5.72;1.70;;;9.80;99.90;;;9.24;78.59;101169.50;5045185;28;20044;-47
2021/04/23 03:41:07;;;;;;;4.13;1.73;;;9.80;99.90;;;9.27;78.32;101170.09;5038356;28;20044;-43
2021/04/23 03:43:33;;;;;;;3.58;1.55;;;9.80;99.90;;;9.31;77.86;101170.69;5028281;28;20496;-49
2021/04/23 03:45:59;;;;;;;5.25;2.00;;;9.80;99.90;;;9.34;77.97;101178.25;5029189;28;20076;-45
2021/04/23 03:48:25;;;;;;;8.63;2.47;;;9.90;99.90;;;9.32;77.77;101172.34;5047903;28;20454;-47
2021/04/23 03:50:51;;;;;;;4.72;2.05;;;9.80;99.90;;;9.29;78.13;101173.41;5039945;28;20041;-52
2021/04/23 03:53:17;;;;;;;4.85;3.22;;;9.80;99.90;;;9.26;78.61;101183.22;5027002;28;20029;-48
2021/04/23 03:55:48;;;;;;;5.60;3.25;;;9.80;99.90;;;9.20;79.33;101173.28;5027834;28;20045;-46
2021/04/23 03:58:16;;;;;;;9.88;3.78;;;9.80;99.90;;;9.13;79.82;101182.50;5043804;28;20145;-47
2021/04/23 04:00:59;;;;;;;5.15;3.45;;;9.70;99.90;;;9.11;81.15;101189.59;5047703;28;20583;-43
2021/04/23 04:03:28;;;;;;;6.43;3.53;;;9.60;99.90;;;9.13;80.53;101187.69;5028886;28;20034;-47
2021/04/23 04:05:55;;;;;;;8.93;4.03;;;9.70;99.90;;;9.12;80.98;101196.44;5027432;28;20044;-47
2021/04/23 04:08:21;;;;;;;4.50;3.72;;;9.70;99.90;;;9.07;81.35;101193.38;5043396;28;20082;-48
2021/04/23 04:10:48;;;;;;;6.50;3.95;;;9.60;99.90;;;9.01;81.47;101194.66;5047277;28;20041;-43
2021/04/23 04:13:15;;;;;;;11.48;4.70;;;9.60;99.90;;;8.99;81.85;101197.38;5031882;28;20034;-44
2021/04/23 04:15:41;;;;;;;10.82;5.47;;;9.60;99.90;;;9.01;81.31;101199.03;5027417;28;20041;-45
2021/04/23 04:18:10;;;;;;;7.10;4.38;;;9.60;99.90;;;9.02;81.58;101198.06;5040488;28;20045;-49
2021/04/23 04:20:39;;;;;;;7.05;3.92;;;9.60;99.90;;;9.02;81.78;101195.47;5047320;28;20032;-46
2021/04/23 04:23:08;;;;;;;9.07;3.75;;;9.60;99.90;;;9.04;81.80;101210.00;5045120;28;20044;-49
2021/04/23 04:25:38;;;;;;;6.20;3.63;;;9.60;99.90;;;9.03;81.63;101205.75;5047354;28;20037;-43
2021/04/23 04:28:09;;;;;;;6.03;3.75;;;9.60;99.90;;;9.09;81.35;101201.88;5028112;28;20068;-49
2021/04/23 04:30:36;;;;;;;5.97;2.83;;;9.60;99.90;;;9.14;80.83;101202.34;5045910;28;20445;-46
2021/04/23 04:33:04;;;;;;;4.18;2.08;;;9.70;99.90;;;9.23;79.90;101206.84;5047561;28;20491;-43
2021/04/23 04:35:31;;;;;;;5.75;2.75;;;9.70;99.90;;;9.29;79.14;101206.38;5041371;28;20076;-46
2021/04/23 04:37:59;;;;;;;5.45;2.20;;;9.80;99.90;;;9.36;79.08;101215.38;5040357;28;20041;-47
2021/04/23 04:40:28;;;;;;;11.20;3.53;;;9.90;99.90;;;9.27;80.47;101210.88;5027266;28;20051;-47
2021/04/23 04:42:55;;;;;;;5.22;3.03;;;10.00;99.90;;;9.21;80.88;101213.94;5031416;28;20029;-48
2021/04/23 04:45:26;;;;;;;9.30;3.58;;;9.90;99.90;;;9.43;80.10;101219.16;5047059;28;20040;-50
2021/04/23 04:47:54;;;;;;;13.13;3.60;;;10.00;99.90;;;9.48;79.73;101219.59;5046281;28;20447;-51
2021/04/23 04:50:32;;;;;;;6.80;3.92;;;10.20;99.90;;;9.70;79.66;101223.13;5046693;28;20044;-50
2021/04/23 04:53:00;;;;;;;6.93;3.38;;;10.30;99.90;;;9.92;78.82;101233.53;5045907;28;20116;-45
2021/04/23 04:55:32;;;;;;;5.30;2.97;;;10.70;99.90;;;10.73;76.86;101222.56;5046825;28;20045;-48
2021/04/23 04:58:00;;;;;;;4.97;2.45;;;11.70;99.90;;;10.61;76.40;101234.00;5042093;28;20184;-47
2021/04/23 05:00:28;;;;;;;7.28;3.90;;;12.00;99.90;;;10.58;76.44;101229.03;5027939;28;20073;-47
2021/04/23 05:02:55;;;;;;;5.63;2.55;;;11.60;99.90;;;10.49;76.20;101238.44;5026830;28;20105;-45
2021/04/23 05:05:22;;;;;;;3.50;2.47;;;11.60;99.90;;;10.11;77.30;101238.06;5029160;28;20088;-44
2021/04/23 05:07:49;;;;;;;8.60;2.50;;;11.10;99.90;;;10.20;77.33;101247.78;5029041;28;20034;-45
2021/04/23 05:10:15;;;;;;;7.40;2.95;;;11.10;99.90;;;11.15;75.55;101259.03;5033106;28;20340;-47
2021/04/23 05:12:42;;;;;;;8.48;3.97;;;12.10;99.90;;;12.49;71.55;101255.16;5030851;28;20057;-45
2021/04/23 05:15:10;;;;;;;5.70;2.67;;;13.90;99.90;;;13.65;67.98;101250.53;5033932;28;20038;-48
2021/04/23 05:17:36;;;;;;;6.45;2.45;;;15.50;99.90;;;14.69;65.00;101250.91;5030472;28;20132;-46
2021/04/23 05:20:05;;;;;;;4.30;2.35;;;17.20;96.20;;;15.53;62.29;101251.91;5043516;28;20144;-49
2021/04/23 05:22:34;;;;;;;5.60;2.53;;;18.50;90.10;;;15.63;60.97;101258.84;5059519;28;20033;-50
2021/04/23 05:25:03;;;;;;;6.68;2.67;;;19.10;80.60;;;16.21;59.91;101262.31;5070696;28;20102;-45
2021/04/23 05:27:29;;;;;;;4.63;1.70;;;19.50;78.10;;;17.08;57.63;101255.59;5070356;28;20036;-48
2021/04/23 05:29:55;;;;;;;3.72;2.50;;;20.20;74.90;;;17.85;55.26;101254.03;5070159;28;20106;-50
2021/04/23 05:32:21;;;;;;;4.25;2.35;;;21.10;69.90;;;18.46;54.11;101256.75;5070130;28;20033;-50
2021/04/23 05:34:48;;;;;;;10.82;2.47;;;21.90;66.70;;;18.74;53.37;101255.25;5052249;28;20066;-52
2021/04/23 05:37:14;;;;;;;6.32;2.28;;;22.60;63.60;;;18.66;53.87;101255.31;5070299;28;20051;-49
2021/04/23 05:39:44;;;;;;;6.55;2.42;;;22.80;62.60;;;19.22;52.75;101255.75;5070236;28;20036;-52
2021/04/23 05:42:14;;;;;;;7.90;2.30;;;23.30;61.40;;;18.93;52.11;101261.00;5051746;28;20028;-44
2021/04/23 05:44:42;;;;;;;6.40;2.38;;;23.30;57.70;;;20.05;50.18;101265.94;5068959;28;20089;-45
2021/04/23 05:47:08;;;;;;;4.75;1.52;;;23.40;59.60;;;20.31;49.36;101254.84;5070157;28;20067;-50
2021/04/23 05:49:35;;;;;;;3.58;2.15;;;24.00;58.00;;;20.34;49.29;101264.19;5070119;28;20036;-52
2021/04/23 05:52:03;;;;;;;6.10;2.90;;;24.60;55.90;;;20.59;48.56;101254.91;5069998;28;20385;-50
2021/04/23 05:54:30;;;;;;;4.35;2.00;;;24.90;54.60;;;20.82;47.88;101252.81;5069901;28;20056;-49
2021/04/23 05:56:56;;;;;;;4.28;1.85;;;25.20;53.50;;;21.01;47.42;101255.81;5070081;28;20043;-47
2021/04/23 05:59:22;;;;;;;6.45;2.22;;;25.60;53.00;;;21.07;47.23;101255.03;5070004;28;20032;-47
2021/04/23 06:01:49;;;;;;;5.35;2.00;;;25.90;51.80;;;21.38;46.55;101262.59;5070072;28;20052;-48
2021/04/23 06:04:15;;;;;;;3.97;1.90;;;26.20;51.30;;;21.71;45.43;101257.44;5070212;28;20120;-47
2021/04/23 06:06:41;;;;;;;4.95;1.90;;;26.30;51.10;;;21.85;45.01;101259.13;5068755;28;20043;-48
2021/04/23 06:09:08;;;;;;;8.52;2.10;;;26.70;49.70;;;21.96;44.48;101258.53;5068642;28;20032;-53
2021/04/23 06:11:35;;;;;;;5.57;2.90;;;26.90;49.10;;;22.34;43.71;101268.63;5047533;28;20546;-50
2021/04/23 06:14:03;;;;;;;12.13;3.17;;;27.10;48.90;;;22.44;42.91;101269.06;5069854;28;20516;-52
2021/04/23 06:16:29;;;;;;;4.25;1.92;;;27.40;48.00;;;22.64;42.66;101264.59;5068674;28;20039;-48
2021/04/23 06:18:57;;;;;;;2.08;1.48;;;27.70;46.90;;;22.73;41.73;101266.00;5069534;28;20021;-47
2021/04/23 06:21:23;;;;;;;5.15;1.15;;;27.80;45.90;;;22.60;41.83;101273.16;5069136;28;20041;-50
2021/04/23 06:23:49;;;;;;;5.05;1.83;;;27.70;46.20;;;22.57;42.14;101274.41;5069733;28;20086;-49
2021/04/23 06:26:16;;;;;;;2.97;1.70;;;27.70;46.00;;;22.76;41.76;101272.75;5068905;28;20336;-50
2021/04/23 06:28:45;;;;;;;8.35;1.45;;;27.90;46.10;;;22.72;41.21;101277.66;5069008;28;20037;-52
2021/04/23 06:31:13;;;;;;;3.95;1.55;;;28.10;45.10;;;22.87;40.91;101274.00;5069108;28;20060;-47
2021/04/23 06:33:45;;;;;;;3.70;1.38;;;28.30;45.00;;;23.00;40.78;101274.00;5069175;28;20115;-52
2021/04/23 06:36:12;;;;;;;5.53;1.40;;;28.50;44.40;;;23.37;39.12;101281.25;5051723;28;20044;-54
2021/04/23 06:38:38;;;;;;;2.63;1.40;;;28.70;43.80;;;23.28;39.53;101271.88;5068916;28;20162;-49
2021/04/23 06:41:07;;;;;;;1.80;1.52;;;28.80;43.40;;;23.39;38.48;101265.91;5069071;28;20036;-50
2021/04/23 06:43:34;;;;;;;3.20;1.23;;;28.90;42.80;;;22.73;39.44;101273.97;5068955;28;20083;-46
2021/04/23 06:46:00;;;;;;;1.67;1.25;;;28.40;43.10;;;22.59;39.62;101272.34;5068799;28;20036;-49
2021/04/23 06:48:26;;;;;;;2.28;1.35;;;27.90;43.40;;;23.16;38.47;101270.88;5068531;28;20029;-51
2021/04/23 06:50:52;;;;;;;3.38;1.00;;;28.40;42.30;;;23.31;37.07;101263.47;5068871;28;20384;-48
2021/04/23 06:53:20;;;;;;;1.88;1.15;;;28.60;41.60;;;23.15;37.36;101264.78;5050516;28;20038;-54
2021/04/23 06:55:46;;;;;;;1.83;1.40;;;28.80;41.10;;;23.29;37.29;101262.06;5068460;28;20076;-52
2021/04/23 06:58:13;;;;;;;2.03;1.10;;;28.90;41.20;;;22.88;37.89;101262.34;5068985;28;20036;-48
2021/04/23 07:00:41;;;;;;;1.98;1.17;;;28.20;41.50;;;22.90;37.80;101263.78;5068673;28;20071;-49
2021/04/23 07:03:10;;;;;;;2.92;1.02;;;27.10;43.10;;;22.44;38.02;101263.75;5068646;28;20086;-46
2021/04/23 07:05:40;;;;;;;2.13;1.58;;;25.70;45.00;;;21.57;39.32;101267.19;5068429;28;20439;-51
2021/04/23 07:08:06;;;;;;;2.65;1.08;;;24.20;48.00;;;20.61;41.04;101270.59;5068579;28;20540;-52
2021/04/23 07:10:33;;;;;;;3.50;1.35;;;22.80;50.60;;;19.71;42.75;101273.69;5068664;28;20036;-49
2021/04/23 07:12:59;;;;;;;1.70;1.40;;;21.50;52.80;;;19.00;44.45;101277.75;5068374;28;20032;-52
2021/04/23 07:15:31;;;;;;;4.82;1.75;;;20.50;55.00;;;18.77;44.58;101264.63;5068251;28;20070;-52
2021/04/23 07:17:58;;;;;;;2.15;1.30;;;20.00;56.00;;;18.33;45.72;101277.63;5068350;28;20063;-50
2021/04/23 07:20:24;;;;;;;2.53;1.65;;;19.50;57.20;;;18.51;46.21;101275.50;5068035;28;20489;-52
2021/04/23 07:22:52;;;;;;;2.78;1.13;;;19.40;58.70;;;18.16;46.70;101280.38;5068471;28;20028;-49
2021/04/23 07:25:20;;;;;;;5.45;1.15;;;19.20;58.80;;;18.38;46.75;101286.66;5068584;28;20069;-49
2021/04/23 07:27:46;;;;;;;2.92;1.05;;;19.00;59.80;;;18.27;46.79;101286.25;5067723;28;20060;-52
2021/04/23 07:30:27;;;;;;;3.13;1.30;;;19.00;59.50;;;18.45;46.68;101286.75;5067959;28;20079;-52
2021/04/23 07:32:54;;;;;;;1.48;1.30;;;19.10;60.30;;;18.07;47.17;101281.41;5067875;28;20052;-53
2021/04/23 07:35:20;;;;;;;5.30;1.75;;;19.00;60.00;;;18.18;47.07;101296.84;5067829;28;20460;-51
2021/04/23 07:37:46;;;;;;;2.83;1.63;;;18.90;60.60;;;18.32;46.75;101287.38;5068011;28;20033;-49
2021/04/23 07:40:16;;;;;;;4.47;2.50;;;19.10;60.30;;;18.64;45.90;101281.06;5067844;28;20371;-52
2021/04/23 07:42:42;;;;;;;2.42;1.52;;;19.20;60.00;;;18.33;46.57;101296.09;5067679;28;20143;-52
2021/04/23 07:45:10;;;;;;;2.22;1.65;;;19.10;60.00;;;18.70;46.13;101288.25;5067675;28;20028;-52
2021/04/23 07:47:37;;;;;;;2.92;1.70;;;19.10;60.70;;;18.49;46.65;101288.06;5066264;28;20028;-51
2021/04/23 07:50:08;;;;;;;3.17;1.83;;;19.10;60.70;;;18.56;46.22;101284.53;5067741;28;20029;-55
2021/04/23 07:52:34;;;;;;;2.55;1.38;;;19.10;60.70;;;19.01;45.58;101282.84;5067815;28;20060;-52
2021/04/23 07:55:02;;;;;;;2.47;1.83;;;19.40;60.80;;;18.39;45.76;101293.59;5067384;28;20041;-53
2021/04/23 07:57:28;;;;;;;3.90;1.88;;;19.20;59.20;;;18.16;45.68;101290.91;5067606;28;20087;-54
2021/04/23 07:59:55;;;;;;;1.92;1.33;;;18.90;59.70;;;17.96;45.60;101287.06;5067737;28;20396;-52
2021/04/23 08:02:22;;;;;;;3.20;1.60;;;18.70;59.60;;;17.68;46.50;101288.53;5067293;28;20073;-51
2021/04/23 08:04:48;;;;;;;3.45;2.53;;;18.30;60.40;;;17.95;46.21;101288.09;5049321;28;20395;-53
2021/04/23 08:07:14;;;;;;;4.05;1.67;;;18.40;61.20;;;18.08;45.81;101290.97;5067240;28;20040;-54
2021/04/23 08:09:40;;;;;;;1.88;1.40;;;18.60;60.50;;;18.17;45.65;101295.19;5067358;28;20417;-47
2021/04/23 08:12:09;;;;;;;3.40;1.67;;;18.70;60.40;;;18.55;44.61;101297.91;5049521;28;20411;-51
2021/04/23 08:14:35;;;;;;;3.28;1.73;;;19.00;59.80;;;18.66;44.32;101289.63;5067451;28;20037;-47
2021/04/23 08:17:02;;;;;;;6.07;1.70;;;19.20;59.20;;;18.60;44.62;101290.31;5067466;28;20035;-49
2021/04/23 08:19:28;;;;;;;3.25;1.65;;;19.00;59.50;;;19.15;43.68;101291.81;5067837;28;20116;-53
2021/04/23 08:21:54;;;;;;;3.70;1.42;;;19.50;59.50;;;19.04;43.84;101285.16;5067344;28;20067;-53
2021/04/23 08:24:20;;;;;;;1.80;1.08;;;19.50;59.00;;;19.16;42.73;101286.34;5065185;28;20051;-54
2021/04/23 08:26:47;;;;;;;2.95;1.50;;;19.50;58.00;;;18.44;40.96;101295.66;5054741;28;20383;-51
2021/04/23 08:29:13;;;;;;;2.55;1.40;;;19.20;55.20;;;18.61;41.66;101289.31;5067629;28;20505;-49
2021/04/23 08:31:42;;;;;;;3.08;1.40;;;19.00;56.30;;;18.39;39.46;101287.50;5067761;28;20056;-52
2021/04/23 08:34:09;;;;;;;2.83;1.13;;;19.00;54.00;;;18.29;40.01;101281.63;5049273;28;20484;-52
2021/04/23 08:36:36;;;;;;;2.30;1.45;;;18.80;54.00;;;18.00;40.59;101280.47;5067139;28;20115;-50
2021/04/23 08:39:08;;;;;;;3.53;1.02;;;18.60;54.40;;;18.40;38.68;101287.31;5066335;28;20028;-48
2021/04/23 08:41:37;;;;;;;4.75;1.63;;;18.80;54.70;;;18.21;39.59;101279.84;5067022;28;20048;-48
2021/04/23 08:44:04;;;;;;;2.50;0.90;;;18.70;53.90;;;18.35;38.03;101292.31;5067202;28;20029;-50
2021/04/23 08:46:32;;;;;;;2.75;1.52;;;18.80;53.10;;;18.17;38.94;101286.47;5067006;28;20036;-49
2021/04/23 08:48:59;;;;;;;2.28;1.02;;;18.60;53.20;;;18.19;38.39;101282.66;5049306;28;20458;-45
2021/04/23 08:51:28;;;;;;;5.47;1.00;;;18.60;52.90;;;18.47;37.45;101280.31;5067070;28;20087;-47
2021/04/23 08:53:55;;;;;;;2.67;0.93;;;18.80;52.50;;;18.19;38.12;101277.38;5066796;28;20099;-50
2021/04/23 08:56:21;;;;;;;2.58;1.02;;;18.70;52.10;;;18.26;36.64;101277.50;5066906;28;20028;-51
2021/04/23 08:58:48;;;;;;;2.40;1.15;;;18.80;50.40;;;18.16;36.58;101282.19;5066702;28;20642;-48
2021/04/23 09:01:14;;;;;;;2.22;1.08;;;18.70;51.10;;;17.92;35.79;101290.25;5065714;28;20025;-50
2021/04/23 09:03:41;;;;;;;3.55;1.17;;;18.60;50.30;;;17.72;36.07;101284.56;5066804;28;20063;-53
2021/04/23 09:06:20;;;;;;;1.52;0.68;;;18.30;50.00;;;17.94;35.92;101273.25;5066489;28;20073;-50
2021/04/23 09:08:53;;;;;;;4.05;1.05;;;18.30;50.80;;;17.98;36.23;101273.72;5067317;28;20135;-46
2021/04/23 09:11:33;;;;;;;4.32;0.90;;;18.40;50.60;;;18.33;36.30;101281.09;5067501;28;20349;-53
2021/04/23 09:14:22;;;;;;;2.40;0.93;;;18.60;51.30;;;18.32;33.23;101282.09;5067619;28;20045;-52
2021/04/23 09:16:51;;;;;;;2.15;0.90;;;18.80;47.60;;;17.79;35.01;101280.25;5067481;28;20040;-50
2021/04/23 09:19:23;;;;;;;2.78;0.85;;;18.50;48.60;;;17.93;33.70;101270.81;5067509;28;20037;-49
2021/04/23 09:22:09;;;;;;;1.58;0.75;;;18.40;48.30;;;18.32;32.53;101276.00;5067425;28;20174;-51
2021/04/23 09:24:43;;;;;;;2.45;0.82;;;18.70;47.30;;;18.86;33.58;101269.66;5067496;28;20538;-49
2021/04/23 09:27:12;;;;;;;1.52;0.90;;;19.00;48.80;;;18.79;33.71;101268.72;5067167;28;20064;-50
2021/04/23 09:29:43;;;;;;;1.20;0.77;;;19.20;47.90;;;18.66;32.80;101270.31;5067307;28;20036;-53
2021/04/23 09:32:40;;;;;;;2.67;1.17;;;19.20;46.50;;;18.74;32.99;101268.44;5067216;28;20032;-51
2021/04/23 09:35:20;;;;;;;1.98;1.63;;;19.20;47.20;;;19.24;31.63;101272.25;5067245;28;20064;-43
2021/04/23 09:37:55;;;;;;;2.28;0.40;;;19.50;46.30;;;18.84;31.08;101276.09;5067382;28;20388;-49
2021/04/23 09:40:24;;;;;;;4.25;0.95;;;19.30;46.50;;;18.58;33.34;101265.88;5064503;28;20033;-48
2021/04/23 09:43:00;;;;;;;2.55;0.50;;;19.20;46.40;;;18.93;31.81;101264.44;5066315;28;20431;-51
2021/04/23 09:45:46;;;;;;;1.42;0.57;;;19.30;46.00;;;19.46;32.77;101265.19;5066966;28;20169;-49
2021/04/23 09:48:23;;;;;;;;;;;19.70;47.50;;;19.60;31.70;101253.03;5067364;28;20116;-44
2021/04/23 09:50:50;;;;;;;3.67;0.70;;;20.00;45.70;;;20.01;32.63;101263.88;5065807;28;19927;-52
2021/04/23 09:53:27;;;;;;;2.00;0.60;;;20.30;46.70;;;19.74;32.68;101257.47;5070426;28;20032;-51
2021/04/23 09:55:56;;;;;;;2.33;0.60;;;20.10;46.70;;;19.86;31.92;101256.78;5052953;28;20031;-53
2021/04/23 09:58:22;;;;;;;0.85;0.55;;;20.10;46.70;;;19.79;31.92;101257.75;5058505;28;20366;-48
2021/04/23 10:00:59;;;;;;;0.93;0.52;;;20.20;46.40;;;19.46;32.20;101260.75;5073604;28;20054;-50
2021/04/23 10:03:34;;;;;;;1.65;1.02;;;19.90;46.80;;;19.85;32.11;101255.16;5070083;28;20044;-47
2021/04/23 10:06:21;;;;;;;2.97;0.80;;;20.10;47.00;;;19.56;33.05;101255.22;5050024;28;20401;-52
2021/04/23 10:08:47;;;;;;;2.22;0.88;;;20.10;46.80;;;19.52;33.15;101261.88;5050274;28;20442;-53
2021/04/23 10:11:13;;;;;;;2.70;1.00;;;20.00;47.10;;;19.72;33.33;101254.19;5050108;28;20183;-48
2021/04/23 10:13:39;;;;;;;1.40;0.90;;;20.10;47.60;;;19.08;34.23;101246.81;5050551;28;20052;-49
2021/04/23 10:16:05;;;;;;;1.30;0.70;;;19.90;47.40;;;18.55;35.39;101256.50;5050139;28;20041;-50
2021/04/23 10:18:32;;;;;;;1.42;0.80;;;19.50;48.00;;;19.43;33.59;101255.00;5032153;28;20040;-52
2021/04/23 10:20:59;;;;;;;1.52;0.90;;;19.70;48.60;;;19.57;33.40;101242.81;5050564;28;20040;-46
2021/04/23 10:23:29;;;;;;;1.58;1.00;;;19.80;47.60;;;20.40;32.66;101253.72;5050151;28;20033;-49
2021/04/23 10:25:55;;;;;;;1.00;0.70;;;20.40;47.70;;;21.08;32.07;101246.91;5050385;28;20055;-50